createdAt,value
2018-04-26T00:00:27.495Z,78.17
2018-04-26T00:01:27.477Z,77.89
2018-04-26T00:02:27.453Z,78.17
2018-04-26T00:03:27.430Z,77.89
2018-04-26T00:04:27.416Z,77.70
2018-04-26T00:05:27.396Z,77.61
2018-04-26T00:06:27.375Z,77.80
2018-04-26T00:07:27.349Z,78.12
2018-04-26T00:08:27.328Z,77.89
2018-04-26T00:09:27.311Z,77.80
2018-04-26T00:10:27.291Z,77.61
2018-04-26T00:11:27.265Z,77.80
2018-04-26T00:12:27.244Z,78.08
2018-04-26T00:13:27.223Z,77.70
2018-04-26T00:14:27.201Z,77.80
2018-04-26T00:15:27.183Z,76.94
2018-04-26T00:16:27.178Z,77.13
2018-04-26T00:17:27.163Z,77.22
2018-04-26T00:18:27.117Z,77.22
2018-04-26T00:19:27.105Z,77.32
2018-04-26T00:20:27.077Z,77.61
2018-04-26T00:21:27.056Z,77.03
2018-04-26T00:22:27.042Z,77.51
2018-04-26T00:23:27.019Z,76.94
2018-04-26T00:24:27.001Z,77.61
2018-04-26T00:25:26.974Z,77.22
2018-04-26T00:26:26.952Z,76.59
2018-04-26T00:27:26.934Z,76.65
2018-04-26T00:28:26.909Z,76.79
2018-04-26T00:29:26.889Z,76.65
2018-04-26T00:30:26.872Z,76.84
2018-04-26T00:31:26.845Z,76.94
2018-04-26T00:32:26.829Z,76.75
2018-04-26T00:33:26.807Z,76.50
2018-04-26T00:34:26.791Z,76.59
2018-04-26T00:35:26.764Z,75.84
2018-04-26T00:36:26.742Z,75.36
2018-04-26T00:37:26.721Z,75.84
2018-04-26T00:38:26.698Z,75.93
2018-04-26T00:39:26.679Z,75.93
2018-04-26T00:40:26.661Z,76.03
2018-04-26T00:41:26.635Z,75.93
2018-04-26T00:42:26.615Z,75.55
2018-04-26T00:43:26.593Z,75.64
2018-04-26T00:44:26.576Z,74.88
2018-04-26T00:45:26.554Z,74.98
2018-04-26T00:46:26.540Z,74.88
2018-04-26T00:47:26.509Z,75.55
2018-04-26T00:48:26.490Z,75.23
2018-04-26T00:49:26.476Z,75.16
2018-04-26T00:50:26.447Z,75.64
2018-04-26T00:51:26.428Z,75.45
2018-04-26T00:52:26.410Z,75.16
2018-04-26T00:53:26.386Z,74.98
2018-04-26T00:54:26.362Z,74.98
2018-04-26T00:55:26.341Z,75.07
2018-04-26T00:56:26.334Z,74.31
2018-04-26T00:57:26.305Z,74.88
2018-04-26T00:58:26.282Z,74.88
2018-04-26T00:59:26.261Z,74.98
2018-04-26T01:00:26.244Z,74.12
2018-04-26T01:01:26.217Z,74.40
2018-04-26T01:02:26.195Z,74.50
2018-04-26T01:03:26.182Z,74.40
2018-04-26T01:04:26.153Z,74.69
2018-04-26T01:05:26.134Z,74.60
2018-04-26T01:06:26.112Z,74.31
2018-04-26T01:07:26.100Z,74.69
2018-04-26T01:08:26.074Z,74.40
2018-04-26T01:09:26.049Z,74.50
2018-04-26T01:10:26.035Z,74.40
2018-04-26T01:11:26.017Z,74.60
2018-04-26T01:12:25.985Z,74.60
2018-04-26T01:13:25.965Z,74.60
2018-04-26T01:14:25.946Z,74.50
2018-04-26T01:15:25.938Z,74.60
2018-04-26T01:16:25.902Z,74.79
2018-04-26T01:17:25.881Z,74.12
2018-04-26T01:18:25.875Z,74.12
2018-04-26T01:19:25.840Z,74.02
2018-04-26T01:20:25.826Z,74.12
2018-04-26T01:21:25.815Z,73.93
2018-04-26T01:22:25.797Z,74.21
2018-04-26T01:23:25.772Z,74.79
2018-04-26T01:24:25.752Z,74.50
2018-04-26T01:25:25.714Z,74.60
2018-04-26T01:26:25.691Z,74.40
2018-04-26T01:27:25.671Z,74.69
2018-04-26T01:28:25.677Z,74.69
2018-04-26T01:29:25.645Z,74.50
2018-04-26T01:30:25.607Z,74.31
2018-04-26T01:31:25.593Z,74.50
2018-04-26T01:32:25.572Z,74.60
2018-04-26T01:33:25.579Z,74.40
2018-04-26T01:34:25.529Z,74.60
2018-04-26T01:35:25.503Z,74.88
2018-04-26T01:36:25.512Z,75.07
2018-04-26T01:37:25.466Z,74.88
2018-04-26T01:38:25.440Z,75.45
2018-04-26T01:39:25.442Z,75.93
2018-04-26T01:40:25.401Z,75.64
2018-04-26T01:41:25.396Z,75.74
2018-04-26T01:42:25.358Z,75.74
2018-04-26T01:43:25.339Z,76.79
2018-04-26T01:44:25.326Z,77.17
2018-04-26T01:45:25.296Z,77.07
2018-04-26T01:46:25.272Z,76.88
2018-04-26T01:47:25.254Z,77.17
2018-04-26T01:48:25.231Z,77.55
2018-04-26T01:49:25.210Z,77.74
2018-04-26T01:50:25.192Z,77.55
2018-04-26T01:51:25.169Z,77.55
2018-04-26T01:52:25.173Z,77.83
2018-04-26T01:53:25.131Z,78.03
2018-04-26T01:54:25.157Z,77.64
2018-04-26T01:55:25.102Z,77.36
2018-04-26T01:56:25.074Z,77.36
2018-04-26T01:57:25.044Z,78.56
2018-04-26T01:58:25.024Z,79.41
2018-04-26T01:59:25.037Z,80.08
2018-04-26T02:00:24.980Z,80.46
2018-04-26T02:01:24.971Z,80.94
2018-04-26T02:02:24.943Z,81.23
2018-04-26T02:03:24.918Z,82.56
2018-04-26T02:04:24.898Z,82.37
2018-04-26T02:05:24.880Z,82.99
2018-04-26T02:06:24.855Z,82.93
2018-04-26T02:07:24.834Z,83.98
2018-04-26T02:08:24.815Z,83.80
2018-04-26T02:09:24.796Z,83.89
2018-04-26T02:10:24.776Z,84.04
2018-04-26T02:11:24.749Z,83.85
2018-04-26T02:12:24.728Z,83.94
2018-04-26T02:13:24.716Z,83.65
2018-04-26T02:14:24.688Z,83.94
2018-04-26T02:15:24.664Z,84.52
2018-04-26T02:16:24.667Z,84.52
2018-04-26T02:17:24.624Z,84.99
2018-04-26T02:18:24.601Z,84.99
2018-04-26T02:19:24.580Z,84.56
2018-04-26T02:20:24.569Z,84.61
2018-04-26T02:21:24.544Z,84.70
2018-04-26T02:22:24.515Z,84.23
2018-04-26T02:23:24.503Z,84.80
2018-04-26T02:24:24.495Z,84.84
2018-04-26T02:25:24.453Z,84.36
2018-04-26T02:26:24.432Z,84.42
2018-04-26T02:27:24.418Z,84.36
2018-04-26T02:28:24.387Z,84.42
2018-04-26T02:29:24.369Z,84.75
2018-04-26T02:30:24.351Z,84.99
2018-04-26T02:31:24.327Z,85.08
2018-04-26T02:32:24.319Z,84.94
2018-04-26T02:33:24.286Z,85.32
2018-04-26T02:34:24.273Z,85.60
2018-04-26T02:35:24.241Z,85.13
2018-04-26T02:36:24.220Z,84.94
2018-04-26T02:37:24.202Z,84.80
2018-04-26T02:38:24.193Z,85.37
2018-04-26T02:39:24.189Z,85.28
2018-04-26T02:40:24.135Z,85.66
2018-04-26T02:41:24.114Z,85.37
2018-04-26T02:42:24.096Z,85.70
2018-04-26T02:43:24.071Z,85.89
2018-04-26T02:44:24.048Z,84.75
2018-04-26T02:45:24.034Z,85.37
2018-04-26T02:46:24.009Z,85.51
2018-04-26T02:47:23.983Z,84.17
2018-04-26T02:48:23.981Z,85.13
2018-04-26T02:49:23.948Z,84.70
2018-04-26T02:50:23.927Z,84.89
2018-04-26T02:51:23.912Z,85.22
2018-04-26T02:52:23.879Z,84.84
2018-04-26T02:53:23.869Z,84.70
2018-04-26T02:54:23.836Z,84.75
2018-04-26T02:55:23.817Z,84.94
2018-04-26T02:56:23.801Z,84.56
2018-04-26T02:57:23.773Z,84.17
2018-04-26T02:58:23.756Z,84.75
2018-04-26T02:59:23.730Z,84.36
2018-04-26T03:00:23.717Z,84.56
2018-04-26T03:01:23.705Z,83.75
2018-04-26T03:02:23.666Z,83.94
2018-04-26T03:03:23.648Z,83.61
2018-04-26T03:04:23.623Z,84.80
2018-04-26T03:05:23.606Z,84.23
2018-04-26T03:06:23.581Z,84.52
2018-04-26T03:07:23.564Z,83.75
2018-04-26T03:08:23.625Z,84.42
2018-04-26T03:09:23.542Z,83.65
2018-04-26T03:10:23.500Z,84.23
2018-04-26T03:11:23.476Z,84.52
2018-04-26T03:12:23.454Z,84.52
2018-04-26T03:13:23.433Z,83.75
2018-04-26T03:14:23.409Z,83.47
2018-04-26T03:15:23.386Z,83.85
2018-04-26T03:16:23.372Z,83.75
2018-04-26T03:17:23.349Z,84.23
2018-04-26T03:18:23.328Z,84.04
2018-04-26T03:19:23.314Z,83.75
2018-04-26T03:20:23.293Z,83.65
2018-04-26T03:21:23.261Z,83.18
2018-04-26T03:22:23.241Z,83.47
2018-04-26T03:23:23.221Z,84.13
2018-04-26T03:24:23.199Z,84.33
2018-04-26T03:25:23.174Z,85.08
2018-04-26T03:26:23.154Z,84.80
2018-04-26T03:27:23.133Z,86.13
2018-04-26T03:28:23.111Z,86.32
2018-04-26T03:29:23.101Z,85.85
2018-04-26T03:30:23.067Z,86.13
2018-04-26T03:31:23.048Z,86.22
2018-04-26T03:32:23.025Z,86.70
2018-04-26T03:33:23.002Z,86.80
2018-04-26T03:34:22.984Z,86.22
2018-04-26T03:35:22.963Z,86.42
2018-04-26T03:36:22.941Z,87.08
2018-04-26T03:37:23.029Z,86.90
2018-04-26T03:38:22.933Z,85.75
2018-04-26T03:39:22.876Z,85.75
2018-04-26T03:40:22.854Z,86.51
2018-04-26T03:41:22.891Z,86.42
2018-04-26T03:42:22.843Z,85.85
2018-04-26T03:43:22.839Z,85.56
2018-04-26T03:44:22.785Z,85.94
2018-04-26T03:45:22.768Z,85.85
2018-04-26T03:46:22.729Z,85.56
2018-04-26T03:47:22.766Z,85.56
2018-04-26T03:48:22.698Z,85.66
2018-04-26T03:49:22.694Z,86.13
2018-04-26T03:50:22.641Z,85.75
2018-04-26T03:51:22.646Z,86.51
2018-04-26T03:52:22.615Z,86.32
2018-04-26T03:53:22.580Z,86.42
2018-04-26T03:54:22.640Z,86.61
2018-04-26T03:55:22.600Z,86.61
2018-04-26T03:56:22.507Z,86.22
2018-04-26T03:57:22.488Z,86.32
2018-04-26T03:58:22.520Z,86.70
2018-04-26T03:59:22.490Z,86.22
2018-04-26T04:00:22.421Z,86.70
2018-04-26T04:01:22.405Z,86.61
2018-04-26T04:02:22.376Z,86.32
2018-04-26T04:03:22.390Z,86.61
2018-04-26T04:04:22.339Z,86.90
2018-04-26T04:05:22.313Z,86.61
2018-04-26T04:06:22.290Z,86.61
2018-04-26T04:07:22.269Z,87.08
2018-04-26T04:08:22.280Z,87.75
2018-04-26T04:09:22.228Z,88.23
2018-04-26T04:10:22.203Z,88.70
2018-04-26T04:11:22.183Z,89.37
2018-04-26T04:12:22.160Z,90.03
2018-04-26T04:13:22.140Z,89.56
2018-04-26T04:14:22.150Z,89.18
2018-04-26T04:15:22.094Z,89.65
2018-04-26T04:16:22.075Z,89.84
2018-04-26T04:17:22.053Z,89.18
2018-04-26T04:18:22.055Z,89.27
2018-04-26T04:19:22.009Z,89.08
2018-04-26T04:20:22.015Z,89.70
2018-04-26T04:21:21.968Z,90.47
2018-04-26T04:22:21.947Z,91.03
2018-04-26T04:23:21.924Z,91.22
2018-04-26T04:24:21.901Z,91.03
2018-04-26T04:25:21.880Z,91.61
2018-04-26T04:26:21.860Z,91.99
2018-04-26T04:27:21.835Z,91.99
2018-04-26T04:28:21.820Z,92.46
2018-04-26T04:29:21.965Z,91.99
2018-04-26T04:30:21.811Z,92.08
2018-04-26T04:31:21.843Z,91.80
2018-04-26T04:32:21.730Z,91.42
2018-04-26T04:33:22.650Z,92.08
2018-04-26T04:34:21.684Z,92.56
2018-04-26T04:35:21.718Z,92.46
2018-04-26T04:36:21.646Z,92.18
2018-04-26T04:37:21.621Z,92.27
2018-04-26T04:38:21.630Z,92.36
2018-04-26T04:39:21.576Z,92.46
2018-04-26T04:40:21.555Z,92.84
2018-04-26T04:41:21.536Z,92.08
2018-04-26T04:42:21.511Z,93.23
2018-04-26T04:43:21.494Z,93.23
2018-04-26T04:44:21.468Z,92.75
2018-04-26T04:45:21.454Z,92.94
2018-04-26T04:46:21.425Z,92.46
2018-04-26T04:47:21.406Z,92.36
2018-04-26T04:48:21.383Z,92.46
2018-04-26T04:49:21.361Z,92.75
2018-04-26T04:50:21.337Z,93.23
2018-04-26T04:51:21.320Z,93.04
2018-04-26T04:52:24.155Z,92.65
2018-04-26T04:53:21.273Z,91.99
2018-04-26T04:54:21.262Z,92.18
2018-04-26T04:55:21.238Z,92.56
2018-04-26T04:56:21.220Z,91.51
2018-04-26T04:57:21.188Z,91.13
2018-04-26T04:58:21.170Z,91.03
2018-04-26T04:59:21.152Z,90.75
2018-04-26T05:00:21.192Z,91.03
2018-04-26T05:01:21.114Z,90.94
2018-04-26T05:02:21.080Z,91.61
2018-04-26T05:03:21.057Z,91.61
2018-04-26T05:04:21.044Z,91.61
2018-04-26T05:05:21.020Z,91.13
2018-04-26T05:06:21.004Z,91.03
2018-04-26T05:07:21.018Z,91.32
2018-04-26T05:08:20.949Z,91.22
2018-04-26T05:09:20.926Z,91.22
2018-04-26T05:10:20.907Z,91.13
2018-04-26T05:11:20.882Z,91.32
2018-04-26T05:12:20.862Z,91.42
2018-04-26T05:13:20.848Z,90.56
2018-04-26T05:14:20.837Z,91.03
2018-04-26T05:15:20.888Z,91.03
2018-04-26T05:16:20.827Z,90.28
2018-04-26T05:17:20.787Z,89.80
2018-04-26T05:18:20.739Z,90.66
2018-04-26T05:19:20.790Z,90.56
2018-04-26T05:20:20.687Z,90.56
2018-04-26T05:21:20.667Z,90.18
2018-04-26T05:22:20.648Z,89.89
2018-04-26T05:23:20.623Z,89.80
2018-04-26T05:24:20.600Z,89.51
2018-04-26T05:25:20.577Z,88.94
2018-04-26T05:26:20.556Z,89.70
2018-04-26T05:27:20.536Z,89.51
2018-04-26T05:28:20.519Z,90.28
2018-04-26T05:29:20.493Z,90.18
2018-04-26T05:30:20.468Z,90.18
2018-04-26T05:31:20.446Z,90.84
2018-04-26T05:32:20.426Z,89.99
2018-04-26T05:33:20.402Z,89.89
2018-04-26T05:34:20.381Z,89.99
2018-04-26T05:35:20.364Z,89.70
2018-04-26T05:36:20.335Z,89.70
2018-04-26T05:37:20.314Z,89.70
2018-04-26T05:38:20.296Z,89.89
2018-04-26T05:39:20.276Z,89.99
2018-04-26T05:40:20.249Z,89.99
2018-04-26T05:41:20.227Z,89.99
2018-04-26T05:42:20.208Z,89.89
2018-04-26T05:43:20.182Z,90.18
2018-04-26T05:44:20.162Z,89.89
2018-04-26T05:45:20.145Z,89.42
2018-04-26T05:46:20.115Z,89.70
2018-04-26T05:47:20.115Z,89.32
2018-04-26T05:48:20.073Z,89.14
2018-04-26T05:49:20.051Z,89.32
2018-04-26T05:50:20.030Z,89.75
2018-04-26T05:51:20.014Z,89.37
2018-04-26T05:52:19.994Z,89.47
2018-04-26T05:53:19.965Z,88.79
2018-04-26T05:54:19.946Z,89.18
2018-04-26T05:55:19.920Z,89.18
2018-04-26T05:56:19.909Z,88.32
2018-04-26T05:57:19.887Z,88.99
2018-04-26T05:58:19.857Z,89.56
2018-04-26T05:59:19.859Z,88.99
2018-04-26T06:00:19.812Z,89.94
2018-04-26T06:01:19.792Z,89.18
2018-04-26T06:02:19.774Z,88.89
2018-04-26T06:03:19.753Z,89.37
2018-04-26T06:04:19.731Z,88.99
2018-04-26T06:05:19.707Z,89.18
2018-04-26T06:06:19.681Z,89.18
2018-04-26T06:07:19.662Z,89.18
2018-04-26T06:08:19.646Z,87.65
2018-04-26T06:09:19.617Z,88.79
2018-04-26T06:10:19.595Z,88.23
2018-04-26T06:11:19.654Z,88.23
2018-04-26T06:12:19.553Z,88.99
2018-04-26T06:13:19.529Z,88.99
2018-04-26T06:14:19.516Z,89.27
2018-04-26T06:15:19.491Z,88.89
2018-04-26T06:16:19.463Z,88.99
2018-04-26T06:17:19.443Z,88.60
2018-04-26T06:18:19.421Z,88.60
2018-04-26T06:19:19.398Z,89.08
2018-04-26T06:20:19.378Z,88.89
2018-04-26T06:21:19.358Z,88.51
2018-04-26T06:22:19.338Z,88.04
2018-04-26T06:23:19.315Z,88.70
2018-04-26T06:24:19.292Z,89.18
2018-04-26T06:25:19.272Z,87.65
2018-04-26T06:26:19.248Z,87.94
2018-04-26T06:27:19.227Z,87.37
2018-04-26T06:28:19.206Z,86.99
2018-04-26T06:29:19.189Z,87.27
2018-04-26T06:30:19.169Z,87.37
2018-04-26T06:31:19.141Z,87.65
2018-04-26T06:32:19.120Z,87.27
2018-04-26T06:33:19.104Z,87.08
2018-04-26T06:34:19.084Z,87.08
2018-04-26T06:35:19.055Z,87.56
2018-04-26T06:36:19.034Z,87.08
2018-04-26T06:37:19.018Z,87.75
2018-04-26T06:38:18.991Z,87.75
2018-04-26T06:39:18.979Z,88.13
2018-04-26T06:40:18.945Z,88.23
2018-04-26T06:41:18.930Z,87.65
2018-04-26T06:42:18.912Z,87.56
2018-04-26T06:43:18.883Z,87.75
2018-04-26T06:44:18.862Z,87.94
2018-04-26T06:45:18.841Z,87.85
2018-04-26T06:46:18.816Z,86.61
2018-04-26T06:47:18.796Z,86.42
2018-04-26T06:48:18.775Z,86.61
2018-04-26T06:49:18.754Z,86.80
2018-04-26T06:50:18.731Z,86.80
2018-04-26T06:51:18.707Z,86.46
2018-04-26T06:52:18.686Z,86.90
2018-04-26T06:53:18.666Z,86.22
2018-04-26T06:54:18.647Z,86.65
2018-04-26T06:55:18.631Z,86.46
2018-04-26T06:56:18.601Z,86.18
2018-04-26T06:57:18.580Z,86.75
2018-04-26T06:58:18.561Z,86.65
2018-04-26T06:59:18.535Z,86.94
2018-04-26T07:00:18.513Z,86.51
2018-04-26T07:01:18.493Z,86.55
2018-04-26T07:02:18.476Z,87.18
2018-04-26T07:03:18.449Z,87.08
2018-04-26T07:04:18.428Z,86.70
2018-04-26T07:05:18.406Z,87.37
2018-04-26T07:06:18.384Z,87.37
2018-04-26T07:07:18.364Z,87.13
2018-04-26T07:08:18.341Z,87.41
2018-04-26T07:09:18.321Z,87.23
2018-04-26T07:10:18.296Z,86.94
2018-04-26T07:11:18.281Z,87.23
2018-04-26T07:12:18.262Z,87.03
2018-04-26T07:13:18.236Z,87.41
2018-04-26T07:14:18.223Z,86.84
2018-04-26T07:15:18.189Z,86.27
2018-04-26T07:16:18.171Z,86.36
2018-04-26T07:17:18.148Z,86.41
2018-04-26T07:18:18.125Z,85.64
2018-04-26T07:19:18.104Z,86.03
2018-04-26T07:20:18.083Z,85.27
2018-04-26T07:21:18.062Z,84.79
2018-04-26T07:22:18.040Z,85.17
2018-04-26T07:23:18.021Z,84.69
2018-04-26T07:24:18.009Z,83.80
2018-04-26T07:25:17.978Z,84.27
2018-04-26T07:26:17.958Z,84.41
2018-04-26T07:27:17.958Z,84.41
2018-04-26T07:28:17.915Z,84.88
2018-04-26T07:29:17.918Z,84.69
2018-04-26T07:30:17.879Z,84.98
2018-04-26T07:31:17.905Z,84.31
2018-04-26T07:32:17.841Z,83.84
2018-04-26T07:33:17.850Z,84.88
2018-04-26T07:34:17.786Z,83.74
2018-04-26T07:35:17.766Z,84.31
2018-04-26T07:36:17.747Z,84.31
2018-04-26T07:37:17.726Z,84.50
2018-04-26T07:38:17.720Z,84.41
2018-04-26T07:39:17.685Z,83.93
2018-04-26T07:40:17.660Z,84.03
2018-04-26T07:41:17.642Z,83.65
2018-04-26T07:42:17.622Z,84.22
2018-04-26T07:43:17.598Z,84.41
2018-04-26T07:44:17.578Z,84.07
2018-04-26T07:45:17.557Z,83.26
2018-04-26T07:46:17.535Z,83.07
2018-04-26T07:47:17.526Z,83.26
2018-04-26T07:48:17.498Z,83.36
2018-04-26T07:49:17.482Z,83.31
2018-04-26T07:50:17.453Z,83.17
2018-04-26T07:51:17.430Z,82.89
2018-04-26T07:52:17.413Z,82.21
2018-04-26T07:53:17.390Z,82.41
2018-04-26T07:54:17.370Z,82.89
2018-04-26T07:55:17.352Z,83.93
2018-04-26T07:56:17.332Z,83.26
2018-04-26T07:57:17.312Z,83.65
2018-04-26T07:58:17.285Z,83.97
2018-04-26T07:59:17.270Z,83.50
2018-04-26T08:00:17.247Z,83.78
2018-04-26T08:01:17.229Z,83.31
2018-04-26T08:02:17.205Z,82.26
2018-04-26T08:03:17.184Z,82.64
2018-04-26T08:04:17.163Z,81.59
2018-04-26T08:05:17.142Z,81.59
2018-04-26T08:06:17.121Z,81.68
2018-04-26T08:07:17.111Z,81.30
2018-04-26T08:08:17.084Z,80.07
2018-04-26T08:09:17.068Z,80.01
2018-04-26T08:10:17.051Z,79.30
2018-04-26T08:11:17.020Z,80.16
2018-04-26T08:12:17.007Z,79.68
2018-04-26T08:13:16.999Z,79.11
2018-04-26T08:14:16.958Z,78.92
2018-04-26T08:15:16.969Z,77.49
2018-04-26T08:16:16.959Z,77.78
2018-04-26T08:17:16.905Z,77.25
2018-04-26T08:18:16.875Z,78.06
2018-04-26T08:19:16.859Z,78.39
2018-04-26T08:20:16.836Z,77.97
2018-04-26T08:21:16.815Z,77.69
2018-04-26T08:22:16.795Z,78.10
2018-04-26T08:23:16.774Z,78.30
2018-04-26T08:24:16.752Z,77.72
2018-04-26T08:25:16.732Z,76.77
2018-04-26T08:26:16.711Z,76.48
2018-04-26T08:27:16.697Z,76.39
2018-04-26T08:28:16.671Z,76.01
2018-04-26T08:29:16.650Z,76.01
2018-04-26T08:30:16.635Z,76.10
2018-04-26T08:31:16.609Z,74.23
2018-04-26T08:32:16.590Z,74.32
2018-04-26T08:33:16.569Z,72.51
2018-04-26T08:34:16.547Z,73.28
2018-04-26T08:35:16.536Z,72.99
2018-04-26T08:36:16.521Z,71.84
2018-04-26T08:37:16.488Z,71.46
2018-04-26T08:38:16.477Z,71.84
2018-04-26T08:39:16.453Z,71.84
2018-04-26T08:40:16.425Z,71.75
2018-04-26T08:41:16.414Z,71.84
2018-04-26T08:42:16.386Z,72.42
2018-04-26T08:43:16.374Z,71.46
2018-04-26T08:44:16.352Z,71.27
2018-04-26T08:45:16.326Z,71.56
2018-04-26T08:46:16.309Z,71.23
2018-04-26T08:47:16.287Z,71.66
2018-04-26T08:48:16.267Z,72.09
2018-04-26T08:49:16.245Z,72.23
2018-04-26T08:50:16.232Z,72.71
2018-04-26T08:51:16.206Z,72.42
2018-04-26T08:52:16.209Z,72.61
2018-04-26T08:53:16.172Z,72.61
2018-04-26T08:54:16.148Z,73.08
2018-04-26T08:55:16.128Z,72.32
2018-04-26T08:56:16.109Z,72.80
2018-04-26T08:57:16.101Z,73.28
2018-04-26T08:58:16.068Z,74.42
2018-04-26T08:59:16.047Z,74.32
2018-04-26T09:00:16.028Z,74.32
2018-04-26T09:01:16.007Z,74.61
2018-04-26T09:02:15.987Z,75.18
2018-04-26T09:03:15.999Z,74.52
2018-04-26T09:04:15.984Z,74.80
2018-04-26T09:05:15.938Z,74.04
2018-04-26T09:06:15.911Z,73.85
2018-04-26T09:07:15.887Z,73.75
2018-04-26T09:08:15.876Z,72.42
2018-04-26T09:09:15.858Z,73.47
2018-04-26T09:10:15.832Z,74.32
2018-04-26T09:11:15.810Z,74.99
2018-04-26T09:12:15.792Z,74.86
2018-04-26T09:13:15.786Z,76.20
2018-04-26T09:14:15.750Z,77.91
2018-04-26T09:15:15.735Z,79.72
2018-04-26T09:16:15.715Z,80.44
2018-04-26T09:17:15.691Z,83.02
2018-04-26T09:18:15.670Z,84.64
2018-04-26T09:19:15.651Z,85.64
2018-04-26T09:20:15.631Z,86.41
2018-04-26T09:21:15.612Z,87.65
2018-04-26T09:22:15.590Z,89.17
2018-04-26T09:23:15.572Z,89.17
2018-04-26T09:24:15.550Z,89.65
2018-04-26T09:25:15.532Z,88.89
2018-04-26T09:26:15.512Z,85.64
2018-04-26T09:27:15.491Z,85.46
2018-04-26T09:28:15.472Z,87.27
2018-04-26T09:29:15.449Z,86.79
2018-04-26T09:30:15.434Z,86.51
2018-04-26T09:31:15.407Z,86.32
2018-04-26T09:32:15.392Z,86.74
2018-04-26T09:33:15.368Z,85.97
2018-04-26T09:34:15.347Z,84.26
2018-04-26T09:35:15.325Z,84.36
2018-04-26T09:36:15.307Z,85.50
2018-04-26T09:37:15.288Z,85.78
2018-04-26T09:38:15.264Z,83.59
2018-04-26T09:39:15.242Z,84.83
2018-04-26T09:40:15.225Z,85.54
2018-04-26T09:41:15.210Z,83.73
2018-04-26T09:42:15.185Z,83.92
2018-04-26T09:43:15.173Z,83.83
2018-04-26T09:44:15.143Z,83.64
2018-04-26T09:45:15.123Z,82.30
2018-04-26T09:46:15.108Z,81.54
2018-04-26T09:47:15.083Z,81.77
2018-04-26T09:48:15.065Z,82.43
2018-04-26T09:49:15.041Z,81.96
2018-04-26T09:50:15.025Z,81.38
2018-04-26T09:51:15.001Z,80.91
2018-04-26T09:52:14.988Z,80.15
2018-04-26T09:53:14.965Z,76.04
2018-04-26T09:54:14.943Z,75.28
2018-04-26T09:55:14.918Z,75.51
2018-04-26T09:56:14.905Z,76.46
2018-04-26T09:57:14.878Z,75.79
2018-04-26T09:58:14.877Z,75.76
2018-04-26T09:59:14.840Z,76.04
2018-04-26T10:00:14.823Z,76.94
2018-04-26T10:01:14.799Z,76.37
2018-04-26T10:02:14.777Z,75.45
2018-04-26T10:03:14.758Z,74.59
2018-04-26T10:04:14.740Z,73.35
2018-04-26T10:05:14.766Z,73.07
2018-04-26T10:06:14.699Z,73.63
2018-04-26T10:07:14.678Z,72.97
2018-04-26T10:08:14.665Z,73.35
2018-04-26T10:09:14.641Z,73.54
2018-04-26T10:10:14.618Z,73.50
2018-04-26T10:11:14.600Z,72.26
2018-04-26T10:12:14.588Z,72.07
2018-04-26T10:13:14.565Z,72.99
2018-04-26T10:14:14.544Z,74.04
2018-04-26T10:15:14.523Z,74.32
2018-04-26T10:16:14.506Z,76.04
2018-04-26T10:17:14.495Z,76.81
2018-04-26T10:18:14.464Z,77.19
2018-04-26T10:19:14.446Z,77.09
2018-04-26T10:20:14.437Z,76.04
2018-04-26T10:21:14.433Z,74.61
2018-04-26T10:22:14.383Z,74.71
2018-04-26T10:23:14.377Z,75.57
2018-04-26T10:24:14.354Z,77.61
2018-04-26T10:25:14.325Z,77.23
2018-04-26T10:26:14.305Z,77.51
2018-04-26T10:27:14.285Z,78.03
2018-04-26T10:28:14.266Z,78.03
2018-04-26T10:29:14.249Z,75.59
2018-04-26T10:30:14.230Z,75.30
2018-04-26T10:31:14.217Z,75.14
2018-04-26T10:32:14.193Z,71.61
2018-04-26T10:33:14.174Z,71.32
2018-04-26T10:34:14.156Z,71.57
2018-04-26T10:35:14.135Z,71.63
2018-04-26T10:36:14.122Z,71.13
2018-04-26T10:37:14.112Z,68.84
2018-04-26T10:38:14.083Z,66.86
2018-04-26T10:39:14.069Z,64.95
2018-04-26T10:40:14.051Z,65.20
2018-04-26T10:41:14.030Z,65.01
2018-04-26T10:42:14.012Z,65.97
2018-04-26T10:43:13.999Z,65.81
2018-04-26T10:44:14.042Z,62.68
2018-04-26T10:45:13.968Z,62.55
2018-04-26T10:46:13.943Z,64.53
2018-04-26T10:47:13.926Z,65.17
2018-04-26T10:48:13.924Z,64.62
2018-04-26T10:49:13.899Z,64.88
2018-04-26T10:50:13.889Z,64.95
2018-04-26T10:51:13.857Z,63.60
2018-04-26T10:52:13.846Z,60.83
2018-04-26T10:53:13.825Z,57.72
2018-04-26T10:54:13.806Z,56.15
2018-04-26T10:55:13.791Z,53.97
2018-04-26T10:56:13.782Z,52.65
2018-04-26T10:57:13.762Z,50.49
2018-04-26T10:58:13.740Z,50.01
2018-04-26T10:59:13.724Z,53.44
2018-04-26T11:00:13.789Z,54.30
2018-04-26T11:01:13.697Z,52.81
2018-04-26T11:02:13.679Z,51.35
2018-04-26T11:03:13.663Z,53.05
2018-04-26T11:04:13.658Z,54.44
2018-04-26T11:05:13.632Z,55.34
2018-04-26T11:06:13.616Z,57.80
2018-04-26T11:07:13.606Z,59.88
2018-04-26T11:08:13.588Z,61.47
2018-04-26T11:09:13.640Z,62.78
2018-04-26T11:10:13.556Z,63.64
2018-04-26T11:11:13.547Z,64.59
2018-04-26T11:12:13.525Z,64.59
2018-04-26T11:13:13.511Z,64.50
2018-04-26T11:14:13.497Z,63.07
2018-04-26T11:15:13.475Z,62.87
2018-04-26T11:16:13.463Z,61.82
2018-04-26T11:17:13.450Z,60.74
2018-04-26T11:18:13.429Z,58.34
2018-04-26T11:19:13.412Z,54.01
2018-04-26T11:20:13.394Z,50.05
2018-04-26T11:21:13.406Z,47.58
2018-04-26T11:22:13.361Z,46.21
2018-04-26T11:23:13.348Z,46.48
2018-04-26T11:24:13.331Z,46.62
2018-04-26T11:25:13.321Z,45.22
2018-04-26T11:26:13.302Z,44.07
2018-04-26T11:27:13.287Z,43.13
2018-04-26T11:28:13.274Z,42.41
2018-04-26T11:29:13.347Z,43.51
2018-04-26T11:30:13.247Z,42.19
2018-04-26T11:31:13.234Z,40.86
2018-04-26T11:32:13.218Z,41.32
2018-04-26T11:33:13.209Z,43.26
2018-04-26T11:34:13.194Z,46.43
2018-04-26T11:35:13.182Z,48.52
2018-04-26T11:36:13.195Z,51.18
2018-04-26T11:37:13.159Z,52.87
2018-04-26T11:38:13.153Z,55.02
2018-04-26T11:39:13.131Z,57.99
2018-04-26T11:40:13.142Z,60.51
2018-04-26T11:41:13.106Z,56.98
2018-04-26T11:42:13.094Z,53.80
2018-04-26T11:43:13.085Z,53.80
2018-04-26T11:44:13.065Z,50.90
2018-04-26T11:45:13.055Z,53.05
2018-04-26T11:46:13.040Z,53.27
2018-04-26T11:47:13.028Z,55.33
2018-04-26T11:48:13.019Z,57.76
2018-04-26T11:49:13.002Z,59.55
2018-04-26T11:50:12.989Z,61.05
2018-04-26T11:51:12.974Z,63.03
2018-04-26T11:52:12.961Z,63.10
2018-04-26T11:53:12.949Z,64.98
2018-04-26T11:54:12.934Z,68.41
2018-04-26T11:55:12.918Z,70.77
2018-04-26T11:56:12.908Z,72.26
2018-04-26T11:57:12.890Z,74.17
2018-04-26T11:58:12.875Z,75.85
2018-04-26T11:59:12.858Z,78.23
2018-04-26T12:00:12.876Z,77.95
2018-04-26T12:01:12.826Z,79.53
2018-04-26T12:02:12.835Z,80.11
2018-04-26T12:03:12.796Z,80.30
2018-04-26T12:04:12.781Z,81.15
2018-04-26T12:05:12.762Z,82.68
2018-04-26T12:06:12.747Z,83.83
2018-04-26T12:07:12.733Z,82.87
2018-04-26T12:08:12.716Z,82.30
2018-04-26T12:09:12.699Z,83.25
2018-04-26T12:10:12.679Z,84.01
2018-04-26T12:11:12.660Z,83.73
2018-04-26T12:12:12.644Z,82.87
2018-04-26T12:13:12.637Z,83.35
2018-04-26T12:14:12.606Z,83.31
2018-04-26T12:15:12.586Z,83.88
2018-04-26T12:16:12.570Z,83.97
2018-04-26T12:17:12.551Z,83.88
2018-04-26T12:18:12.540Z,84.07
2018-04-26T12:19:12.521Z,85.60
2018-04-26T12:20:12.502Z,86.36
2018-04-26T12:21:12.482Z,85.78
2018-04-26T12:22:12.459Z,81.59
2018-04-26T12:23:12.441Z,78.13
2018-04-26T12:24:12.428Z,73.02
2018-04-26T12:25:12.409Z,65.39
2018-04-26T12:26:12.386Z,63.09
2018-04-26T12:27:12.369Z,61.98
2018-04-26T12:28:12.352Z,60.43
2018-04-26T12:29:12.400Z,58.70
2018-04-26T12:30:12.317Z,58.03
2018-04-26T12:31:12.302Z,55.20
2018-04-26T12:32:12.295Z,55.67
2018-04-26T12:33:12.287Z,53.50
2018-04-26T12:34:12.257Z,54.13
2018-04-26T12:35:12.274Z,53.74
2018-04-26T12:36:12.234Z,58.23
2018-04-26T12:37:12.221Z,61.30
2018-04-26T12:38:12.209Z,60.21
2018-04-26T12:39:12.215Z,61.56
2018-04-26T12:40:12.176Z,63.73
2018-04-26T12:41:12.165Z,66.32
2018-04-26T12:42:12.241Z,67.29
2018-04-26T12:43:12.138Z,63.57
2018-04-26T12:44:12.135Z,55.43
2018-04-26T12:45:12.120Z,54.71
2018-04-26T12:46:12.108Z,52.87
2018-04-26T12:47:12.112Z,51.00
2018-04-26T12:48:12.107Z,50.38
2018-04-26T12:49:12.118Z,48.06
2018-04-26T12:50:12.096Z,47.85
2018-04-26T12:51:12.058Z,48.44
2018-04-26T12:52:12.034Z,46.17